Terminal Aerodrome Forecast
Issued by NWS Billings, MT

Home | Current Version | Previous Version | Text Only | Print | Product List | Glossary Off
Versions: 1 2 3 4 5 6 7 8 9 10 11 12 13 14 15 16 17 18 19 20 21 22 23 24 25 26 27 28 29 30 31 32 33 34 35 36

000
FTUS45 KBYZ 280243 AAB
TAFMLS
TAF AMD
KMLS 280243Z 2803/2824 30015G25KT P6SM -SHRA SCT060 BKN080
     FM280500 31025G30KT P6SM VCSH BKN040
     FM281600 33030G40KT P6SM VCSH BKN060=

USA.gov is the U.S. government's official web portal to all federal, state and local government web resources and services.